Time;durP1;ratioP1;P1;durP2;ratioP2;P2;SDS_P1;SDS_P2;PMS_P1;PMS_P2;Temp;Humidity;BMP_temperature;BMP_pressure;BME280_temperature;BME280_humidity;BME280_pressure;Samples;Min_cycle;Max_cycle;Signal;HPM_P1;HPM_P2
2023/04/26 00:02:17;;;;;;;5.10;2.80;;;10.00;99.90;;;;;;6222307;22;20051;-80
2023/04/26 00:04:46;;;;;;;4.22;2.25;;;10.00;99.90;;;;;;6248907;22;20047;-79
2023/04/26 00:07:14;;;;;;;5.57;2.75;;;10.00;99.90;;;;;;6225107;22;20050;-76
2023/04/26 00:09:43;;;;;;;5.30;3.10;;;10.00;99.90;;;;;;6251448;22;20020;-79
2023/04/26 00:12:10;;;;;;;4.72;2.75;;;9.90;99.90;;;;;;6225825;22;20022;-79
2023/04/26 00:14:38;;;;;;;5.20;3.05;;;10.00;99.90;;;;;;6224832;22;20038;-75
2023/04/26 00:17:05;;;;;;;6.55;2.72;;;9.90;99.90;;;;;;6225578;22;20016;-78
2023/04/26 00:19:32;;;;;;;10.38;3.75;;;9.90;99.90;;;;;;6224969;22;20098;-78
2023/04/26 00:21:59;;;;;;;5.78;2.88;;;9.90;99.90;;;;;;6227279;22;20030;-78
2023/04/26 00:24:26;;;;;;;6.05;4.30;;;9.90;99.90;;;;;;6251288;22;20020;-78
2023/04/26 00:26:54;;;;;;;5.18;2.97;;;10.00;99.90;;;;;;6250970;22;20119;-79
2023/04/26 00:29:22;;;;;;;5.57;3.30;;;10.00;99.90;;;;;;6224360;22;20028;-78
2023/04/26 00:31:50;;;;;;;4.68;3.38;;;10.00;99.90;;;;;;6225689;22;20697;-77
2023/04/26 00:34:17;;;;;;;6.55;2.88;;;10.00;99.90;;;;;;6250285;22;20015;-78
2023/04/26 00:36:44;;;;;;;5.97;3.33;;;10.00;99.90;;;;;;6221788;22;20047;-79
2023/04/26 00:39:11;;;;;;;5.72;3.55;;;10.00;99.90;;;;;;6222165;22;20026;-78
2023/04/26 00:41:39;;;;;;;7.72;4.05;;;10.00;99.90;;;;;;6224384;22;20434;-78
2023/04/26 00:44:06;;;;;;;9.43;4.43;;;10.00;99.90;;;;;;6221879;22;20023;-78
2023/04/26 00:46:33;;;;;;;5.78;3.03;;;10.10;99.90;;;;;;6225846;22;20299;-78
2023/04/26 00:49:01;;;;;;;6.45;3.13;;;10.00;99.90;;;;;;6225575;22;20015;-78
2023/04/26 00:51:28;;;;;;;6.47;3.30;;;10.00;99.90;;;;;;6224190;22;20591;-78
2023/04/26 00:53:56;;;;;;;5.70;2.85;;;10.00;99.90;;;;;;6250796;22;20024;-78
2023/04/26 00:56:23;;;;;;;4.30;3.05;;;10.00;99.90;;;;;;6224205;22;20026;-78
2023/04/26 00:58:51;;;;;;;4.45;3.03;;;10.00;99.90;;;;;;6224465;22;20024;-78
2023/04/26 01:01:18;;;;;;;6.10;3.20;;;10.00;99.90;;;;;;6225641;22;20028;-78
2023/04/26 01:03:46;;;;;;;5.47;3.15;;;10.00;99.90;;;;;;6251060;22;20118;-78
2023/04/26 01:06:14;;;;;;;4.88;3.22;;;10.00;99.90;;;;;;6224708;22;20031;-79
2023/04/26 01:08:41;;;;;;;5.68;3.40;;;10.00;99.90;;;;;;6250453;22;20012;-78
2023/04/26 01:11:10;;;;;;;5.57;3.30;;;10.00;99.90;;;;;;6223523;22;20066;-78
2023/04/26 01:13:37;;;;;;;4.22;2.78;;;10.00;99.90;;;;;;6225287;22;20451;-78
2023/04/26 01:16:07;;;;;;;7.88;3.20;;;10.00;99.90;;;;;;6224675;22;20098;-79
2023/04/26 01:18:34;;;;;;;6.75;3.63;;;10.00;99.90;;;;;;6225536;22;20030;-77
2023/04/26 01:21:03;;;;;;;4.70;2.83;;;9.90;99.90;;;;;;6225254;22;20048;-79
2023/04/26 01:23:30;;;;;;;5.28;3.38;;;9.90;99.90;;;;;;6249223;22;20525;-78
2023/04/26 01:25:58;;;;;;;6.03;3.67;;;9.80;99.90;;;;;;6250732;22;20054;-78
2023/04/26 01:28:25;;;;;;;6.65;3.20;;;9.80;99.90;;;;;;6249625;22;20035;-78
2023/04/26 01:30:52;;;;;;;7.28;3.15;;;9.70;99.90;;;;;;6224383;22;20706;-78
2023/04/26 01:33:20;;;;;;;7.60;2.97;;;9.70;99.90;;;;;;6225689;22;20244;-79
2023/04/26 01:35:47;;;;;;;6.07;3.05;;;9.70;99.90;;;;;;6226135;22;20054;-77
2023/04/26 01:38:15;;;;;;;5.45;3.45;;;9.60;99.90;;;;;;6225424;22;20041;-78
2023/04/26 01:40:44;;;;;;;5.57;3.40;;;9.60;99.90;;;;;;6249727;22;20026;-78
2023/04/26 01:43:12;;;;;;;5.63;3.20;;;9.60;99.90;;;;;;6225791;22;20028;-78
2023/04/26 01:45:40;;;;;;;7.55;3.40;;;9.50;99.90;;;;;;6249091;22;20032;-78
2023/04/26 01:48:25;;;;;;;5.20;3.03;;;9.50;99.90;;;;;;6254842;22;20023;-78
2023/04/26 01:50:53;;;;;;;6.55;4.43;;;9.50;99.90;;;;;;6227816;22;20069;-78
2023/04/26 01:53:20;;;;;;;6.53;3.55;;;9.50;99.90;;;;;;6251417;22;20024;-78
2023/04/26 01:55:47;;;;;;;5.50;3.67;;;9.40;99.90;;;;;;6226669;22;20320;-79
2023/04/26 01:58:15;;;;;;;5.22;2.90;;;9.40;99.90;;;;;;6249122;22;20020;-78
2023/04/26 02:00:42;;;;;;;7.10;3.05;;;9.40;99.90;;;;;;6224581;22;20023;-79
2023/04/26 02:03:10;;;;;;;6.60;3.33;;;9.40;99.90;;;;;;6247070;22;20128;-76
2023/04/26 02:05:37;;;;;;;5.30;3.40;;;9.40;99.90;;;;;;6222922;22;20027;-77
2023/04/26 02:08:05;;;;;;;7.25;3.08;;;9.30;99.90;;;;;;6222595;22;20019;-78
2023/04/26 02:10:32;;;;;;;7.82;3.70;;;9.30;99.90;;;;;;6223150;22;20019;-77
2023/04/26 02:12:59;;;;;;;4.93;2.92;;;9.30;99.90;;;;;;6249088;22;20023;-79
2023/04/26 02:15:26;;;;;;;6.07;3.88;;;9.20;99.90;;;;;;6248282;22;20022;-78
2023/04/26 02:17:55;;;;;;;5.07;2.97;;;9.30;99.90;;;;;;6223730;22;20024;-77
2023/04/26 02:20:22;;;;;;;8.20;4.10;;;9.20;99.90;;;;;;6248583;22;20042;-78
2023/04/26 02:22:49;;;;;;;5.47;3.20;;;9.20;99.90;;;;;;6226191;22;20455;-78
2023/04/26 02:25:17;;;;;;;4.80;3.42;;;9.20;99.90;;;;;;6223050;22;20016;-78
2023/04/26 02:27:45;;;;;;;5.38;3.05;;;9.20;99.90;;;;;;6250268;22;20111;-79
2023/04/26 02:30:12;;;;;;;4.55;3.17;;;9.20;99.90;;;;;;6223256;22;20065;-78
2023/04/26 02:32:40;;;;;;;5.20;3.15;;;9.10;99.90;;;;;;6225140;22;20019;-78
2023/04/26 02:35:07;;;;;;;6.20;3.15;;;9.10;99.90;;;;;;6223614;22;20023;-78
2023/04/26 02:37:35;;;;;;;5.00;3.28;;;9.10;99.90;;;;;;6223492;22;20023;-79
2023/04/26 02:40:04;;;;;;;6.63;3.17;;;9.10;99.90;;;;;;6224632;22;20026;-79
2023/04/26 02:42:31;;;;;;;4.35;2.83;;;9.10;99.90;;;;;;6247705;22;20054;-77
2023/04/26 02:44:58;;;;;;;6.05;3.45;;;9.10;99.90;;;;;;6224682;22;20030;-77
2023/04/26 02:47:27;;;;;;;4.63;2.63;;;9.10;99.90;;;;;;6226090;22;20027;-79
2023/04/26 02:49:54;;;;;;;7.63;3.33;;;9.00;99.90;;;;;;6223747;22;20024;-77
2023/04/26 02:52:21;;;;;;;4.65;2.45;;;9.00;99.90;;;;;;6221888;22;20098;-79
2023/04/26 02:54:48;;;;;;;5.45;2.90;;;9.00;99.70;;;;;;6222823;22;20019;-78
2023/04/26 02:57:16;;;;;;;5.13;2.80;;;9.00;99.70;;;;;;6248077;22;20439;-79
2023/04/26 02:59:43;;;;;;;4.55;3.00;;;9.00;99.50;;;;;;6224321;22;20503;-79
2023/04/26 03:02:10;;;;;;;5.10;3.03;;;9.00;99.50;;;;;;6223380;22;20024;-79
2023/04/26 03:04:38;;;;;;;9.45;3.22;;;9.00;99.40;;;;;;6224885;22;20039;-78
2023/04/26 03:07:06;;;;;;;5.63;2.80;;;9.00;99.40;;;;;;6225088;22;20019;-79
2023/04/26 03:09:36;;;;;;;6.18;3.13;;;8.90;99.50;;;;;;6247825;22;20058;-79
2023/04/26 03:12:07;;;;;;;5.38;2.65;;;8.90;99.30;;;;;;6248501;22;20070;-77
2023/04/26 03:14:36;;;;;;;3.90;2.30;;;8.90;99.00;;;;;;6222854;22;20545;-77
2023/04/26 03:17:03;;;;;;;4.45;2.65;;;8.90;99.10;;;;;;6222956;22;20026;-79
2023/04/26 03:19:31;;;;;;;6.35;3.17;;;8.90;99.20;;;;;;6222627;22;20024;-76
2023/04/26 03:22:00;;;;;;;5.57;2.90;;;8.90;99.30;;;;;;6221561;22;20016;-77
2023/04/26 03:24:27;;;;;;;6.55;3.40;;;8.80;99.90;;;;;;6224172;22;20023;-79
2023/04/26 03:26:54;;;;;;;5.88;3.33;;;8.70;99.90;;;;;;6248651;22;20061;-78
2023/04/26 03:29:21;;;;;;;5.25;3.35;;;8.60;99.90;;;;;;6223297;22;20455;-77
2023/04/26 03:31:48;;;;;;;6.55;3.00;;;8.70;99.90;;;;;;6222362;22;20027;-77
2023/04/26 03:34:16;;;;;;;3.90;2.70;;;8.70;99.90;;;;;;6223722;22;20026;-77
2023/04/26 03:36:43;;;;;;;5.57;2.67;;;8.70;99.90;;;;;;6222097;22;20522;-77
2023/04/26 03:39:10;;;;;;;6.68;2.40;;;8.70;99.80;;;;;;6245465;22;20023;-78
2023/04/26 03:41:40;;;;;;;5.20;2.58;;;8.70;99.50;;;;;;6225560;22;20252;-79
2023/04/26 03:44:11;;;;;;;4.45;2.20;;;8.60;99.40;;;;;;6248617;22;20028;-79
2023/04/26 03:46:38;;;;;;;4.28;2.88;;;8.60;99.20;;;;;;6221081;22;20051;-78
2023/04/26 03:49:06;;;;;;;3.70;2.17;;;8.60;98.90;;;;;;6223818;22;20103;-78
2023/04/26 03:51:33;;;;;;;3.70;2.35;;;8.60;98.50;;;;;;6224638;22;20026;-78
2023/04/26 03:54:00;;;;;;;4.65;2.08;;;8.60;98.20;;;;;;6223247;22;20019;-78
2023/04/26 03:56:28;;;;;;;4.03;1.98;;;8.60;98.20;;;;;;6223730;22;20721;-79
2023/04/26 03:58:55;;;;;;;6.40;2.00;;;8.60;98.50;;;;;;6224045;22;20328;-78
2023/04/26 04:01:24;;;;;;;4.10;2.20;;;8.60;98.20;;;;;;6222835;22;20034;-78
2023/04/26 04:03:51;;;;;;;4.25;1.70;;;8.50;98.10;;;;;;6224476;22;20016;-78
2023/04/26 04:06:19;;;;;;;9.77;2.47;;;8.60;98.30;;;;;;6221973;22;20019;-78
2023/04/26 04:08:46;;;;;;;4.70;2.05;;;8.60;98.50;;;;;;6222768;22;20069;-78
2023/04/26 04:11:13;;;;;;;4.47;2.10;;;8.60;98.20;;;;;;6224217;22;20019;-77
2023/04/26 04:13:42;;;;;;;5.32;2.03;;;8.60;97.80;;;;;;6225948;22;20023;-78
2023/04/26 04:16:10;;;;;;;4.80;2.08;;;8.70;97.90;;;;;;6225222;22;20403;-79
2023/04/26 04:18:37;;;;;;;3.13;1.58;;;8.70;97.90;;;;;;6224211;22;20035;-77
2023/04/26 04:21:05;;;;;;;6.10;2.58;;;8.60;97.80;;;;;;6223679;22;20035;-78
2023/04/26 04:23:33;;;;;;;8.52;2.20;;;8.70;97.50;;;;;;6221915;22;20398;-78
2023/04/26 04:26:04;;;;;;;3.38;1.90;;;8.70;97.60;;;;;;6248047;22;20051;-79
2023/04/26 04:28:33;;;;;;;4.57;2.40;;;8.70;97.50;;;;;;6221921;22;20024;-78
2023/04/26 04:31:00;;;;;;;5.97;2.70;;;8.70;97.20;;;;;;6224950;22;20024;-77
2023/04/26 04:33:28;;;;;;;4.97;2.58;;;8.70;97.10;;;;;;6225177;22;20130;-78
2023/04/26 04:35:57;;;;;;;5.13;2.28;;;8.70;96.90;;;;;;6223019;22;20019;-78
2023/04/26 04:38:24;;;;;;;5.93;2.78;;;8.80;96.80;;;;;;6223808;22;20044;-78
2023/04/26 04:40:52;;;;;;;4.80;2.00;;;8.80;96.40;;;;;;6225109;22;20071;-79
2023/04/26 04:43:20;;;;;;;6.88;2.10;;;8.70;96.30;;;;;;6222432;22;20367;-78
2023/04/26 04:45:48;;;;;;;3.17;1.92;;;8.70;96.10;;;;;;6222930;22;20098;-79
2023/04/26 04:48:15;;;;;;;4.15;2.30;;;8.80;95.90;;;;;;6223380;22;20043;-78
2023/04/26 04:50:43;;;;;;;3.55;1.83;;;8.90;95.70;;;;;;6225291;22;20122;-78
2023/04/26 04:53:13;;;;;;;4.78;2.13;;;8.90;95.30;;;;;;6222672;22;20024;-78
2023/04/26 04:55:40;;;;;;;3.85;1.88;;;9.00;95.40;;;;;;6224761;22;20031;-78
2023/04/26 04:58:09;;;;;;;4.03;2.10;;;9.00;94.90;;;;;;6248426;22;20672;-79
2023/04/26 05:00:36;;;;;;;3.58;1.92;;;9.00;94.90;;;;;;6224255;22;20332;-78
2023/04/26 05:03:33;;;;;;;3.88;2.28;;;9.00;94.70;;;;;;6230731;22;20048;-79
2023/04/26 05:06:03;;;;;;;6.15;1.88;;;9.10;94.40;;;;;;6228509;22;20098;-78
2023/04/26 05:08:30;;;;;;;3.90;1.75;;;9.20;94.10;;;;;;6226933;22;20074;-78
2023/04/26 05:11:01;;;;;;;4.75;1.80;;;9.20;94.10;;;;;;6226329;22;20054;-79
2023/04/26 05:13:28;;;;;;;6.57;2.80;;;9.30;94.20;;;;;;6250217;22;20038;-78
2023/04/26 05:15:56;;;;;;;3.55;2.30;;;9.40;94.00;;;;;;6225399;22;20095;-78
2023/04/26 05:18:23;;;;;;;5.97;2.17;;;9.40;93.70;;;;;;6250367;22;20050;-78
2023/04/26 05:20:50;;;;;;;4.63;2.45;;;9.40;93.70;;;;;;6223659;22;20027;-77
2023/04/26 05:23:17;;;;;;;4.80;2.08;;;9.50;93.60;;;;;;6248731;22;20057;-79
2023/04/26 05:25:44;;;;;;;5.78;1.65;;;9.50;93.40;;;;;;6224953;22;20749;-78
2023/04/26 05:28:34;;;;;;;6.47;2.03;;;9.50;93.40;;;;;;6245229;22;20019;-78
2023/04/26 05:31:24;;;;;;;5.10;2.05;;;9.60;92.90;;;;;;6200945;22;20024;-78
2023/04/26 05:34:04;;;;;;;5.75;2.03;;;9.60;92.40;;;;;;6251999;22;20055;-77
2023/04/26 05:36:35;;;;;;;3.53;1.83;;;9.60;92.50;;;;;;6226034;22;20070;-79
2023/04/26 05:39:04;;;;;;;7.45;2.40;;;9.70;92.30;;;;;;6248734;22;20107;-78
2023/04/26 05:41:31;;;;;;;6.07;2.45;;;9.70;92.00;;;;;;6250611;22;20024;-78
2023/04/26 05:43:59;;;;;;;6.15;2.50;;;9.80;92.10;;;;;;6200253;22;20024;-78
2023/04/26 05:46:27;;;;;;;7.60;2.35;;;9.90;91.80;;;;;;6222408;22;20023;-78
2023/04/26 05:48:54;;;;;;;7.05;2.40;;;9.90;91.60;;;;;;6221135;22;20034;-79
2023/04/26 05:51:21;;;;;;;5.40;2.55;;;10.00;91.70;;;;;;6220048;22;20327;-79
2023/04/26 05:53:49;;;;;;;5.63;2.08;;;10.00;91.40;;;;;;6239681;22;20134;-77
2023/04/26 05:56:17;;;;;;;7.43;2.70;;;10.20;91.60;;;;;;6214256;22;20019;-79
2023/04/26 05:58:44;;;;;;;6.95;2.17;;;10.10;89.90;;;;;;6212948;22;20031;-79
2023/04/26 06:01:12;;;;;;;3.88;2.08;;;10.10;89.20;;;;;;6213873;22;20028;-78
2023/04/26 06:03:39;;;;;;;5.78;1.92;;;10.20;88.20;;;;;;6215859;22;20050;-78
2023/04/26 06:06:07;;;;;;;6.18;2.42;;;10.30;87.60;;;;;;6220336;22;20047;-78
2023/04/26 06:08:37;;;;;;;10.50;2.00;;;10.60;87.20;;;;;;6216593;22;20030;-77
2023/04/26 06:11:05;;;;;;;4.30;1.58;;;10.40;85.10;;;;;;6241238;22;20458;-78
2023/04/26 06:13:32;;;;;;;7.40;2.40;;;10.60;84.80;;;;;;6217821;22;20062;-78
2023/04/26 06:15:59;;;;;;;7.60;2.78;;;10.70;84.50;;;;;;6244811;22;20047;-78
2023/04/26 06:18:26;;;;;;;5.75;1.75;;;10.70;82.10;;;;;;6243487;22;20026;-77
2023/04/26 06:20:53;;;;;;;5.60;2.10;;;10.90;82.70;;;;;;6226447;22;20027;-78
2023/04/26 06:23:20;;;;;;;7.82;1.73;;;11.00;81.10;;;;;;6221725;22;20030;-77
2023/04/26 06:25:48;;;;;;;4.85;1.40;;;11.00;80.20;;;;;;6219535;22;20099;-78
2023/04/26 06:28:15;;;;;;;5.43;1.80;;;11.00;79.60;;;;;;6240009;22;20030;-78
2023/04/26 06:30:42;;;;;;;5.07;2.08;;;10.80;79.20;;;;;;6220532;22;20019;-79
2023/04/26 06:33:09;;;;;;;7.13;2.47;;;10.90;79.00;;;;;;6240240;22;20019;-78
2023/04/26 06:35:39;;;;;;;3.58;2.10;;;10.90;78.50;;;;;;6214681;22;20423;-78
2023/04/26 06:38:08;;;;;;;5.95;2.30;;;11.10;78.80;;;;;;6245875;22;20457;-78
2023/04/26 06:40:37;;;;;;;6.70;2.25;;;11.10;78.60;;;;;;6218080;22;20367;-79
2023/04/26 06:43:04;;;;;;;4.68;1.58;;;11.30;77.40;;;;;;6240241;22;20443;-78
2023/04/26 06:46:03;;;;;;;6.82;1.38;;;11.20;75.90;;;;;;6199096;22;20016;-78
2023/04/26 06:48:31;;;;;;;6.90;2.25;;;11.00;75.70;;;;;;6226440;22;20106;-78
2023/04/26 06:50:58;;;;;;;5.43;1.52;;;11.30;76.40;;;;;;6245948;22;20106;-77
2023/04/26 06:53:25;;;;;;;3.53;1.50;;;11.20;74.50;;;;;;6245108;22;20447;-79
2023/04/26 06:55:52;;;;;;;5.95;1.50;;;11.20;74.10;;;;;;6247091;22;20459;-78
2023/04/26 06:58:20;;;;;;;7.90;1.92;;;11.30;74.50;;;;;;6217061;22;20020;-78
2023/04/26 07:00:47;;;;;;;3.55;1.10;;;11.40;72.70;;;;;;6215154;22;20463;-78
2023/04/26 07:03:15;;;;;;;3.92;1.45;;;11.40;72.80;;;;;;6242857;22;20433;-79
2023/04/26 07:05:42;;;;;;;5.22;1.45;;;11.40;72.40;;;;;;6246384;22;20476;-78
2023/04/26 07:08:10;;;;;;;5.45;1.35;;;11.50;72.40;;;;;;6242401;22;20068;-78
2023/04/26 07:10:41;;;;;;;6.50;2.13;;;11.90;72.70;;;;;;6241967;22;20016;-78
2023/04/26 07:13:08;;;;;;;4.07;1.40;;;11.90;70.60;;;;;;6243994;22;20026;-78
2023/04/26 07:15:35;;;;;;;5.47;1.02;;;11.90;71.00;;;;;;6241771;22;20022;-78
2023/04/26 07:18:02;;;;;;;6.05;1.65;;;12.00;69.80;;;;;;6244478;22;20015;-78
2023/04/26 07:20:29;;;;;;;3.90;1.40;;;12.10;69.50;;;;;;6245778;22;20110;-77
2023/04/26 07:22:57;;;;;;;7.75;2.05;;;11.90;69.30;;;;;;6244155;22;20023;-77
2023/04/26 07:25:24;;;;;;;6.82;1.85;;;11.90;69.30;;;;;;6224125;22;20046;-79
2023/04/26 07:27:51;;;;;;;4.45;1.30;;;12.10;70.20;;;;;;6218415;22;20023;-79
2023/04/26 07:30:18;;;;;;;6.05;1.95;;;12.20;69.30;;;;;;6211751;22;20031;-77
2023/04/26 07:32:46;;;;;;;7.22;1.65;;;12.20;69.20;;;;;;6238040;22;20034;-78
2023/04/26 07:35:14;;;;;;;6.60;1.42;;;12.00;68.30;;;;;;6219393;22;20069;-79
2023/04/26 07:37:43;;;;;;;4.82;1.52;;;11.80;68.20;;;;;;6275395;22;20039;-78
2023/04/26 07:40:12;;;;;;;6.30;2.47;;;12.20;69.10;;;;;;6241785;22;20122;-79
2023/04/26 07:42:40;;;;;;;4.43;1.50;;;12.20;68.80;;;;;;6242599;22;20387;-78
2023/04/26 07:45:08;;;;;;;4.05;1.45;;;12.30;68.90;;;;;;6217199;22;20129;-77
2023/04/26 07:47:35;;;;;;;6.20;1.20;;;12.60;68.30;;;;;;6241236;22;20027;-78
2023/04/26 07:50:03;;;;;;;5.32;1.60;;;12.70;68.40;;;;;;6218468;22;20023;-78
2023/04/26 07:52:30;;;;;;;5.45;1.20;;;13.00;67.50;;;;;;6239609;22;20537;-78
2023/04/26 07:54:57;;;;;;;4.05;0.95;;;12.60;67.50;;;;;;6267855;22;20015;-77
2023/04/26 07:57:24;;;;;;;4.72;1.17;;;12.50;67.50;;;;;;6234844;22;20020;-76
2023/04/26 07:59:51;;;;;;;5.80;1.70;;;12.40;65.40;;;;;;6213507;22;20224;-76
2023/04/26 08:02:18;;;;;;;6.32;1.42;;;12.60;66.30;;;;;;6239129;22;20582;-79
2023/04/26 08:04:56;;;;;;;7.07;1.02;;;12.70;65.40;;;;;;6240788;22;20027;-77
2023/04/26 08:07:24;;;;;;;5.55;0.85;;;12.60;64.20;;;;;;6212363;22;20028;-77
2023/04/26 08:09:51;;;;;;;3.83;1.00;;;12.60;63.70;;;;;;6212338;22;20358;-78
2023/04/26 08:12:18;;;;;;;4.25;1.13;;;13.10;64.50;;;;;;6207970;22;20024;-78
2023/04/26 08:14:46;;;;;;;6.97;1.23;;;12.70;63.70;;;;;;6209916;22;20347;-76
2023/04/26 08:17:13;;;;;;;3.47;0.85;;;13.00;64.40;;;;;;6210946;22;20510;-77
2023/04/26 08:19:41;;;;;;;4.28;0.82;;;13.20;62.80;;;;;;6239790;22;20026;-77
2023/04/26 08:22:08;;;;;;;4.10;1.90;;;13.60;63.00;;;;;;6213729;22;20351;-76
2023/04/26 08:24:35;;;;;;;5.15;0.80;;;13.50;62.10;;;;;;6263598;22;20024;-76
2023/04/26 08:27:03;;;;;;;5.53;0.95;;;12.80;61.40;;;;;;6209504;22;20023;-76
2023/04/26 08:29:30;;;;;;;2.95;0.90;;;12.90;63.00;;;;;;6240115;22;20023;-78
2023/04/26 08:31:57;;;;;;;4.43;0.77;;;13.20;61.70;;;;;;6208950;22;20457;-77
2023/04/26 08:34:26;;;;;;;7.28;1.25;;;13.10;61.20;;;;;;6234439;22;20027;-76
2023/04/26 08:36:53;;;;;;;7.35;1.52;;;13.30;61.90;;;;;;6240663;22;20020;-78
2023/04/26 08:39:20;;;;;;;9.98;1.50;;;13.10;61.80;;;;;;6238386;22;20034;-77
2023/04/26 08:41:56;;;;;;;4.57;0.70;;;12.40;62.10;;;;;;6212565;22;20027;-78
2023/04/26 08:44:24;;;;;;;3.38;1.20;;;12.80;62.70;;;;;;6209694;22;20035;-76
2023/04/26 08:46:59;;;;;;;2.33;0.70;;;12.70;61.50;;;;;;6239388;22;20515;-77
2023/04/26 08:49:40;;;;;;;4.10;1.00;;;12.60;62.50;;;;;;6213518;22;20020;-78
2023/04/26 08:52:13;;;;;;;6.63;1.65;;;12.60;63.10;;;;;;6240330;22;20020;-77
2023/04/26 08:54:40;;;;;;;7.50;1.92;;;13.10;61.80;;;;;;6225074;22;20012;-78
2023/04/26 08:57:08;;;;;;;5.13;1.10;;;12.80;61.80;;;;;;6242217;22;20024;-77
2023/04/26 08:59:36;;;;;;;5.53;1.10;;;12.40;62.40;;;;;;6239100;22;20024;-77
2023/04/26 09:02:05;;;;;;;5.38;0.98;;;12.30;61.80;;;;;;6215150;22;20030;-77
2023/04/26 09:04:32;;;;;;;7.07;1.00;;;12.60;61.80;;;;;;6266148;22;20031;-77
2023/04/26 09:07:01;;;;;;;2.15;1.00;;;12.90;60.90;;;;;;6239035;22;20506;-77
2023/04/26 09:09:41;;;;;;;5.53;1.55;;;12.80;59.80;;;;;;6265582;22;20026;-77
2023/04/26 09:12:09;;;;;;;4.63;0.80;;;13.10;60.60;;;;;;6215698;22;20421;-77
2023/04/26 09:14:38;;;;;;;2.38;0.70;;;13.40;60.60;;;;;;6211265;22;20019;-78
2023/04/26 09:17:05;;;;;;;2.45;0.85;;;13.10;58.60;;;;;;6235349;22;20093;-76
2023/04/26 09:19:38;;;;;;;6.85;0.80;;;13.10;59.10;;;;;;6208915;22;20023;-75
2023/04/26 09:22:06;;;;;;;3.80;0.77;;;13.30;59.20;;;;;;6238547;22;20328;-78
2023/04/26 09:24:51;;;;;;;3.83;0.95;;;13.60;59.10;;;;;;6239450;22;20019;-79
2023/04/26 09:27:18;;;;;;;2.63;0.60;;;13.30;58.30;;;;;;6211328;22;20253;-76
2023/04/26 09:30:01;;;;;;;4.43;1.10;;;13.10;59.50;;;;;;6235490;22;20073;-77
2023/04/26 09:32:46;;;;;;;1.83;1.05;;;13.40;59.50;;;;;;6212101;22;20315;-76
2023/04/26 09:35:37;;;;;;;8.20;1.00;;;13.40;59.10;;;;;;6213146;22;20016;-76
2023/04/26 09:38:09;;;;;;;3.58;0.60;;;13.30;58.00;;;;;;6237204;22;20437;-78
2023/04/26 09:40:40;;;;;;;5.72;1.00;;;13.90;58.20;;;;;;6238841;22;20030;-76
2023/04/26 09:43:11;;;;;;;6.03;0.90;;;13.30;57.30;;;;;;6209694;22;20023;-76
2023/04/26 09:45:56;;;;;;;4.35;1.00;;;13.50;58.60;;;;;;6237264;22;20476;-78
2023/04/26 09:48:33;;;;;;;5.30;1.50;;;13.30;56.70;;;;;;6207253;22;20130;-78
2023/04/26 09:51:11;;;;;;;4.72;1.05;;;13.40;57.70;;;;;;6213443;22;20020;-76
2023/04/26 09:53:41;;;;;;;5.15;1.08;;;13.80;57.60;;;;;;6210243;22;20058;-76
2023/04/26 09:56:20;;;;;;;5.57;0.90;;;13.80;57.30;;;;;;6210392;22;20019;-78
2023/04/26 09:59:04;;;;;;;4.45;1.20;;;14.00;57.00;;;;;;6236201;22;20049;-76
2023/04/26 10:01:33;;;;;;;2.60;0.77;;;13.80;56.70;;;;;;6210168;22;20109;-78
2023/04/26 10:04:01;;;;;;;5.93;0.70;;;13.80;56.80;;;;;;6238421;22;20431;-77
2023/04/26 10:06:28;;;;;;;2.05;0.60;;;14.10;57.90;;;;;;6232555;22;20023;-77
2023/04/26 10:08:56;;;;;;;7.55;1.02;;;14.20;57.50;;;;;;6213550;22;20023;-78
2023/04/26 10:11:25;;;;;;;3.25;0.63;;;14.00;56.50;;;;;;6234899;22;20023;-78
2023/04/26 10:13:53;;;;;;;4.50;0.60;;;13.80;55.60;;;;;;6215695;22;20451;-77
2023/04/26 10:16:20;;;;;;;5.05;1.05;;;14.00;56.50;;;;;;6210412;22;20078;-76
2023/04/26 10:18:49;;;;;;;4.03;0.90;;;13.80;55.80;;;;;;6235836;22;20087;-76
2023/04/26 10:21:31;;;;;;;6.00;1.05;;;14.20;57.20;;;;;;6208810;22;20031;-76
2023/04/26 10:23:59;;;;;;;4.60;0.93;;;14.30;56.90;;;;;;6207068;22;20029;-76
2023/04/26 10:26:53;;;;;;;3.70;0.50;;;14.30;55.80;;;;;;6208135;22;20030;-76
2023/04/26 10:29:21;;;;;;;7.90;1.35;;;14.10;54.90;;;;;;6233973;22;20096;-76
2023/04/26 10:32:08;;;;;;;3.92;0.80;;;14.00;55.60;;;;;;6263922;22;20069;-77
2023/04/26 10:34:36;;;;;;;4.43;0.80;;;13.80;55.60;;;;;;6211407;22;20447;-78
2023/04/26 10:37:07;;;;;;;7.50;0.80;;;13.90;56.00;;;;;;6211490;22;20024;-77
2023/04/26 10:39:35;;;;;;;8.00;1.08;;;13.90;55.10;;;;;;6210468;22;20015;-74
2023/04/26 10:42:23;;;;;;;3.90;0.60;;;14.40;55.20;;;;;;6233388;22;20649;-77
2023/04/26 10:44:56;;;;;;;1.98;0.40;;;14.20;54.50;;;;;;6240192;22;20016;-78
2023/04/26 10:47:30;;;;;;;2.83;0.57;;;14.20;55.30;;;;;;6213899;22;20123;-77
2023/04/26 10:50:15;;;;;;;1.42;0.50;;;14.60;55.40;;;;;;6212888;22;20101;-77
2023/04/26 10:53:02;;;;;;;2.03;0.40;;;14.70;54.30;;;;;;6213630;22;20028;-77
2023/04/26 10:55:42;;;;;;;2.78;0.95;;;14.20;54.60;;;;;;6211910;22;20031;-75
2023/04/26 10:58:27;;;;;;;5.28;0.70;;;14.10;53.70;;;;;;6260829;22;20453;-76
2023/04/26 11:01:19;;;;;;;2.72;0.40;;;14.30;54.40;;;;;;6234172;22;20023;-78
2023/04/26 11:03:56;;;;;;;3.80;0.33;;;14.70;54.10;;;;;;6191964;22;20689;-78
2023/04/26 11:06:25;;;;;;;4.63;0.60;;;14.70;52.90;;;;;;6209763;22;20019;-76
2023/04/26 11:08:53;;;;;;;4.15;0.28;;;14.70;52.70;;;;;;6262700;22;20411;-76
2023/04/26 11:11:25;;;;;;;2.50;0.40;;;14.70;52.30;;;;;;6208463;22;20047;-75
2023/04/26 11:13:53;;;;;;;3.80;0.57;;;14.60;51.60;;;;;;6206072;22;20425;-76
2023/04/26 11:16:20;;;;;;;4.38;1.17;;;14.80;51.50;;;;;;6233779;22;20081;-77
2023/04/26 11:18:47;;;;;;;2.22;0.50;;;14.70;51.70;;;;;;6239530;22;20045;-78
2023/04/26 11:21:18;;;;;;;2.40;0.40;;;15.00;52.00;;;;;;6234660;22;20024;-77
2023/04/26 11:23:55;;;;;;;2.70;0.50;;;14.60;50.70;;;;;;6236660;22;20045;-78
2023/04/26 11:26:23;;;;;;;1.65;0.43;;;14.30;51.40;;;;;;6210915;22;20085;-77
2023/04/26 11:28:50;;;;;;;5.00;0.70;;;14.00;51.70;;;;;;6211487;22;20051;-77
2023/04/26 11:31:18;;;;;;;2.17;0.55;;;13.90;52.10;;;;;;6236043;22;20051;-77
2023/04/26 11:33:45;;;;;;;5.22;0.60;;;13.80;53.20;;;;;;6210623;22;20430;-77
2023/04/26 11:36:16;;;;;;;2.75;0.30;;;13.50;53.20;;;;;;6239247;22;20073;-77
2023/04/26 11:38:43;;;;;;;4.05;0.65;;;13.90;52.50;;;;;;6267692;22;20118;-78
2023/04/26 11:41:10;;;;;;;10.90;0.70;;;14.00;51.70;;;;;;6209649;22;20027;-78
2023/04/26 11:43:38;;;;;;;5.35;0.45;;;14.10;51.30;;;;;;6210675;22;20023;-78
2023/04/26 11:46:07;;;;;;;2.92;0.63;;;14.40;51.50;;;;;;6235482;22;20047;-76
2023/04/26 11:48:37;;;;;;;4.47;0.45;;;15.00;52.30;;;;;;6212616;22;20027;-78
2023/04/26 11:51:06;;;;;;;8.45;2.17;;;14.80;51.10;;;;;;6216817;22;20049;-77
2023/04/26 11:53:41;;;;;;;3.35;0.90;;;15.40;52.30;;;;;;6215121;22;20039;-78
2023/04/26 11:56:16;;;;;;;2.85;0.40;;;14.70;51.30;;;;;;6217957;22;20024;-77
2023/04/26 11:58:47;;;;;;;2.40;0.50;;;14.60;52.40;;;;;;6207925;22;20016;-75
2023/04/26 12:01:25;;;;;;;6.20;0.82;;;15.10;51.70;;;;;;6212468;22;20093;-75
2023/04/26 12:03:54;;;;;;;3.10;0.80;;;14.70;52.30;;;;;;6238620;22;20741;-77
2023/04/26 12:06:40;;;;;;;1.90;0.40;;;14.30;52.10;;;;;;6235208;22;20119;-75
2023/04/26 12:09:08;;;;;;;2.75;0.85;;;14.30;52.40;;;;;;6234572;22;20515;-75
2023/04/26 12:11:35;;;;;;;3.03;1.02;;;14.50;51.50;;;;;;6216492;22;20016;-76
2023/04/26 12:14:03;;;;;;;1.77;0.40;;;14.60;52.70;;;;;;6214012;22;20019;-76
2023/04/26 12:16:31;;;;;;;6.00;0.93;;;14.80;52.20;;;;;;6233655;22;20111;-76
2023/04/26 12:18:58;;;;;;;3.00;0.88;;;14.90;51.40;;;;;;6243081;22;20020;-77
2023/04/26 12:21:26;;;;;;;3.60;0.75;;;14.70;51.30;;;;;;6218861;22;20035;-77
2023/04/26 12:23:56;;;;;;;1.80;0.40;;;14.80;50.60;;;;;;6241218;22;20098;-78
2023/04/26 12:26:43;;;;;;;2.13;0.40;;;14.30;51.30;;;;;;6242168;22;20093;-77
2023/04/26 12:29:10;;;;;;;10.10;0.80;;;14.20;51.60;;;;;;6238330;22;20426;-78
2023/04/26 12:31:37;;;;;;;2.38;0.40;;;14.60;52.50;;;;;;6213070;22;20119;-77
2023/04/26 12:34:04;;;;;;;3.10;0.73;;;14.70;52.50;;;;;;6210962;22;20024;-77
2023/04/26 12:36:32;;;;;;;3.22;0.40;;;14.50;52.20;;;;;;6212548;22;20515;-77
2023/04/26 12:39:02;;;;;;;3.92;0.40;;;13.90;52.20;;;;;;6236969;22;20065;-77
2023/04/26 12:41:29;;;;;;;6.15;0.82;;;14.10;53.30;;;;;;6262664;22;20482;-76
2023/04/26 12:43:57;;;;;;;3.28;0.70;;;13.90;53.50;;;;;;6237243;22;20536;-76
2023/04/26 12:46:24;;;;;;;3.65;0.50;;;13.70;52.10;;;;;;6216391;22;20589;-77
2023/04/26 12:48:53;;;;;;;4.90;0.40;;;14.00;53.30;;;;;;6263444;22;20030;-77
2023/04/26 12:51:20;;;;;;;2.72;0.40;;;14.50;51.90;;;;;;6215553;22;20066;-77
2023/04/26 12:53:47;;;;;;;1.98;0.63;;;14.40;51.80;;;;;;6262397;22;20031;-77
2023/04/26 12:56:15;;;;;;;2.95;0.60;;;14.20;52.70;;;;;;6213715;22;20336;-76
2023/04/26 12:58:42;;;;;;;2.35;0.60;;;13.90;52.90;;;;;;6233107;22;20427;-76
2023/04/26 13:01:12;;;;;;;2.78;0.60;;;13.40;53.30;;;;;;6235884;22;20433;-76
2023/04/26 13:03:39;;;;;;;4.00;0.45;;;13.40;54.00;;;;;;6240170;22;20024;-76